sensor_id;sensor_type;location;lat;lon;timestamp;P1;durP1;ratioP1;P2;durP2;ratioP2
45039;SDS011;30778;53.574;7.770;2023-02-20T00:00:07;1.15;;;0.30;;
45039;SDS011;30778;53.574;7.770;2023-02-20T00:02:34;1.83;;;0.50;;
45039;SDS011;30778;53.574;7.770;2023-02-20T00:05:00;3.90;;;0.55;;
45039;SDS011;30778;53.574;7.770;2023-02-20T00:07:25;3.40;;;0.40;;
45039;SDS011;30778;53.574;7.770;2023-02-20T00:09:51;5.28;;;0.60;;
45039;SDS011;30778;53.574;7.770;2023-02-20T00:12:19;1.50;;;0.60;;
45039;SDS011;30778;53.574;7.770;2023-02-20T00:14:45;3.20;;;0.77;;
45039;SDS011;30778;53.574;7.770;2023-02-20T00:17:10;1.27;;;0.50;;
45039;SDS011;30778;53.574;7.770;2023-02-20T00:19:35;3.42;;;0.82;;
45039;SDS011;30778;53.574;7.770;2023-02-20T00:22:01;5.63;;;0.98;;
45039;SDS011;30778;53.574;7.770;2023-02-20T00:24:28;2.65;;;0.80;;
45039;SDS011;30778;53.574;7.770;2023-02-20T00:26:54;2.17;;;0.95;;
45039;SDS011;30778;53.574;7.770;2023-02-20T00:29:21;2.97;;;1.38;;
45039;SDS011;30778;53.574;7.770;2023-02-20T00:31:51;2.65;;;0.90;;
45039;SDS011;30778;53.574;7.770;2023-02-20T00:34:19;2.03;;;0.90;;
45039;SDS011;30778;53.574;7.770;2023-02-20T00:36:45;2.42;;;1.20;;
45039;SDS011;30778;53.574;7.770;2023-02-20T00:39:11;2.40;;;0.90;;
45039;SDS011;30778;53.574;7.770;2023-02-20T00:41:37;2.92;;;1.55;;
45039;SDS011;30778;53.574;7.770;2023-02-20T00:44:02;5.95;;;1.92;;
45039;SDS011;30778;53.574;7.770;2023-02-20T00:46:30;4.78;;;2.20;;
45039;SDS011;30778;53.574;7.770;2023-02-20T00:48:56;3.22;;;1.92;;
45039;SDS011;30778;53.574;7.770;2023-02-20T00:51:40;4.78;;;2.13;;
45039;SDS011;30778;53.574;7.770;2023-02-20T00:54:06;5.60;;;1.73;;
45039;SDS011;30778;53.574;7.770;2023-02-20T00:56:31;5.82;;;1.67;;
45039;SDS011;30778;53.574;7.770;2023-02-20T00:59:00;4.45;;;1.60;;
45039;SDS011;30778;53.574;7.770;2023-02-20T01:01:26;3.33;;;1.70;;
45039;SDS011;30778;53.574;7.770;2023-02-20T01:03:54;4.55;;;1.83;;
45039;SDS011;30778;53.574;7.770;2023-02-20T01:06:19;3.60;;;1.70;;
45039;SDS011;30778;53.574;7.770;2023-02-20T01:08:45;4.72;;;1.90;;
45039;SDS011;30778;53.574;7.770;2023-02-20T01:11:13;4.22;;;2.08;;
45039;SDS011;30778;53.574;7.770;2023-02-20T01:13:38;7.65;;;2.60;;
45039;SDS011;30778;53.574;7.770;2023-02-20T01:16:04;6.90;;;2.35;;
45039;SDS011;30778;53.574;7.770;2023-02-20T01:18:32;3.90;;;2.40;;
45039;SDS011;30778;53.574;7.770;2023-02-20T01:20:58;6.78;;;2.17;;
45039;SDS011;30778;53.574;7.770;2023-02-20T01:23:23;9.00;;;2.63;;
45039;SDS011;30778;53.574;7.770;2023-02-20T01:25:51;6.53;;;2.83;;
45039;SDS011;30778;53.574;7.770;2023-02-20T01:28:19;6.75;;;2.42;;
45039;SDS011;30778;53.574;7.770;2023-02-20T01:30:44;6.85;;;2.38;;
45039;SDS011;30778;53.574;7.770;2023-02-20T01:33:10;6.30;;;2.75;;
45039;SDS011;30778;53.574;7.770;2023-02-20T01:35:35;7.22;;;2.50;;
45039;SDS011;30778;53.574;7.770;2023-02-20T01:38:01;14.07;;;3.35;;
45039;SDS011;30778;53.574;7.770;2023-02-20T01:40:31;8.77;;;3.40;;
45039;SDS011;30778;53.574;7.770;2023-02-20T01:42:59;9.70;;;4.18;;
45039;SDS011;30778;53.574;7.770;2023-02-20T01:45:36;7.85;;;3.35;;
45039;SDS011;30778;53.574;7.770;2023-02-20T01:48:02;8.80;;;3.03;;
45039;SDS011;30778;53.574;7.770;2023-02-20T01:50:36;8.70;;;3.92;;
45039;SDS011;30778;53.574;7.770;2023-02-20T01:53:10;8.85;;;3.53;;
45039;SDS011;30778;53.574;7.770;2023-02-20T01:55:45;7.07;;;4.40;;
45039;SDS011;30778;53.574;7.770;2023-02-20T02:00:50;9.60;;;4.00;;
45039;SDS011;30778;53.574;7.770;2023-02-20T02:03:17;9.57;;;3.90;;
45039;SDS011;30778;53.574;7.770;2023-02-20T02:05:59;8.68;;;4.65;;
45039;SDS011;30778;53.574;7.770;2023-02-20T02:08:29;9.07;;;4.47;;
45039;SDS011;30778;53.574;7.770;2023-02-20T02:11:00;10.80;;;4.72;;
45039;SDS011;30778;53.574;7.770;2023-02-20T02:13:32;10.82;;;4.80;;
45039;SDS011;30778;53.574;7.770;2023-02-20T02:16:42;8.98;;;3.92;;
45039;SDS011;30778;53.574;7.770;2023-02-20T02:19:03;6.00;;;3.97;;
45039;SDS011;30778;53.574;7.770;2023-02-20T02:24:36;9.98;;;5.15;;
45039;SDS011;30778;53.574;7.770;2023-02-20T02:33:33;12.38;;;5.80;;
45039;SDS011;30778;53.574;7.770;2023-02-20T02:36:58;12.23;;;5.07;;
45039;SDS011;30778;53.574;7.770;2023-02-20T02:39:40;15.00;;;6.25;;
45039;SDS011;30778;53.574;7.770;2023-02-20T02:42:23;11.77;;;6.32;;
45039;SDS011;30778;53.574;7.770;2023-02-20T02:44:52;16.85;;;5.38;;
45039;SDS011;30778;53.574;7.770;2023-02-20T02:47:33;14.10;;;6.43;;
45039;SDS011;30778;53.574;7.770;2023-02-20T02:50:09;12.93;;;5.30;;
45039;SDS011;30778;53.574;7.770;2023-02-20T02:52:37;12.23;;;7.07;;
45039;SDS011;30778;53.574;7.770;2023-02-20T02:55:15;11.32;;;6.88;;
45039;SDS011;30778;53.574;7.770;2023-02-20T02:57:53;12.70;;;7.53;;
45039;SDS011;30778;53.574;7.770;2023-02-20T03:00:24;12.38;;;6.82;;
45039;SDS011;30778;53.574;7.770;2023-02-20T03:06:03;12.57;;;7.38;;
45039;SDS011;30778;53.574;7.770;2023-02-20T03:11:12;13.20;;;8.13;;
45039;SDS011;30778;53.574;7.770;2023-02-20T03:13:48;11.82;;;7.50;;
45039;SDS011;30778;53.574;7.770;2023-02-20T03:16:43;16.30;;;8.57;;
45039;SDS011;30778;53.574;7.770;2023-02-20T03:19:15;13.15;;;6.63;;
45039;SDS011;30778;53.574;7.770;2023-02-20T03:21:48;14.43;;;7.88;;
45039;SDS011;30778;53.574;7.770;2023-02-20T03:24:17;12.05;;;7.60;;
45039;SDS011;30778;53.574;7.770;2023-02-20T03:26:45;17.25;;;7.72;;
45039;SDS011;30778;53.574;7.770;2023-02-20T03:29:13;18.23;;;7.72;;
45039;SDS011;30778;53.574;7.770;2023-02-20T03:31:49;14.15;;;8.05;;
45039;SDS011;30778;53.574;7.770;2023-02-20T03:34:37;12.40;;;7.40;;
45039;SDS011;30778;53.574;7.770;2023-02-20T03:37:23;12.48;;;7.78;;
45039;SDS011;30778;53.574;7.770;2023-02-20T03:40:10;14.35;;;7.93;;
45039;SDS011;30778;53.574;7.770;2023-02-20T03:43:11;13.60;;;7.10;;
45039;SDS011;30778;53.574;7.770;2023-02-20T03:45:56;11.73;;;6.90;;
45039;SDS011;30778;53.574;7.770;2023-02-20T03:48:29;19.75;;;8.07;;
45039;SDS011;30778;53.574;7.770;2023-02-20T03:51:02;15.13;;;8.98;;
45039;SDS011;30778;53.574;7.770;2023-02-20T03:53:57;14.27;;;7.93;;
45039;SDS011;30778;53.574;7.770;2023-02-20T03:56:32;15.68;;;7.65;;
45039;SDS011;30778;53.574;7.770;2023-02-20T03:59:06;18.25;;;8.23;;
45039;SDS011;30778;53.574;7.770;2023-02-20T04:01:38;15.80;;;7.53;;
45039;SDS011;30778;53.574;7.770;2023-02-20T04:04:07;11.65;;;7.78;;
45039;SDS011;30778;53.574;7.770;2023-02-20T04:06:41;13.10;;;8.25;;
45039;SDS011;30778;53.574;7.770;2023-02-20T04:09:13;14.10;;;6.97;;
45039;SDS011;30778;53.574;7.770;2023-02-20T04:11:45;19.30;;;8.63;;
45039;SDS011;30778;53.574;7.770;2023-02-20T04:14:17;20.40;;;7.95;;
45039;SDS011;30778;53.574;7.770;2023-02-20T04:16:50;17.05;;;8.52;;
45039;SDS011;30778;53.574;7.770;2023-02-20T04:19:19;16.27;;;7.25;;
45039;SDS011;30778;53.574;7.770;2023-02-20T04:21:58;14.98;;;8.57;;
45039;SDS011;30778;53.574;7.770;2023-02-20T04:27:37;15.63;;;6.75;;
45039;SDS011;30778;53.574;7.770;2023-02-20T04:30:03;17.10;;;7.13;;
45039;SDS011;30778;53.574;7.770;2023-02-20T04:32:30;22.88;;;8.32;;
45039;SDS011;30778;53.574;7.770;2023-02-20T04:34:56;26.52;;;8.68;;
45039;SDS011;30778;53.574;7.770;2023-02-20T04:37:25;15.73;;;6.68;;
45039;SDS011;30778;53.574;7.770;2023-02-20T04:39:53;13.43;;;6.65;;
45039;SDS011;30778;53.574;7.770;2023-02-20T04:42:18;14.60;;;7.85;;
45039;SDS011;30778;53.574;7.770;2023-02-20T04:44:48;16.23;;;7.75;;
45039;SDS011;30778;53.574;7.770;2023-02-20T04:47:15;14.00;;;8.63;;
45039;SDS011;30778;53.574;7.770;2023-02-20T04:49:42;15.00;;;8.40;;
45039;SDS011;30778;53.574;7.770;2023-02-20T04:52:10;21.88;;;7.05;;
45039;SDS011;30778;53.574;7.770;2023-02-20T04:54:36;17.25;;;8.52;;
45039;SDS011;30778;53.574;7.770;2023-02-20T04:57:05;16.42;;;8.27;;
45039;SDS011;30778;53.574;7.770;2023-02-20T04:59:31;14.15;;;8.23;;
45039;SDS011;30778;53.574;7.770;2023-02-20T05:01:59;21.25;;;8.10;;
45039;SDS011;30778;53.574;7.770;2023-02-20T05:04:27;17.73;;;8.77;;
45039;SDS011;30778;53.574;7.770;2023-02-20T05:06:53;18.02;;;8.60;;
45039;SDS011;30778;53.574;7.770;2023-02-20T05:09:19;16.75;;;7.38;;
45039;SDS011;30778;53.574;7.770;2023-02-20T05:11:46;19.08;;;7.88;;
45039;SDS011;30778;53.574;7.770;2023-02-20T05:14:12;17.38;;;8.38;;
45039;SDS011;30778;53.574;7.770;2023-02-20T05:16:38;17.63;;;6.68;;
45039;SDS011;30778;53.574;7.770;2023-02-20T05:19:05;13.27;;;7.40;;
45039;SDS011;30778;53.574;7.770;2023-02-20T05:21:32;22.85;;;7.38;;
45039;SDS011;30778;53.574;7.770;2023-02-20T05:24:17;19.08;;;6.82;;
45039;SDS011;30778;53.574;7.770;2023-02-20T05:26:42;12.00;;;6.25;;
45039;SDS011;30778;53.574;7.770;2023-02-20T05:29:10;15.27;;;7.18;;
45039;SDS011;30778;53.574;7.770;2023-02-20T05:31:40;12.73;;;6.80;;
45039;SDS011;30778;53.574;7.770;2023-02-20T05:34:06;19.73;;;7.28;;
45039;SDS011;30778;53.574;7.770;2023-02-20T05:36:34;23.90;;;7.85;;
45039;SDS011;30778;53.574;7.770;2023-02-20T05:38:59;15.30;;;7.22;;
45039;SDS011;30778;53.574;7.770;2023-02-20T05:41:25;17.80;;;7.95;;
45039;SDS011;30778;53.574;7.770;2023-02-20T05:43:50;21.95;;;8.93;;
45039;SDS011;30778;53.574;7.770;2023-02-20T05:46:18;17.60;;;6.82;;
45039;SDS011;30778;53.574;7.770;2023-02-20T05:48:49;15.10;;;6.82;;
45039;SDS011;30778;53.574;7.770;2023-02-20T05:51:19;20.33;;;8.05;;
45039;SDS011;30778;53.574;7.770;2023-02-20T05:53:49;19.65;;;8.65;;
45039;SDS011;30778;53.574;7.770;2023-02-20T05:56:15;14.20;;;6.30;;
45039;SDS011;30778;53.574;7.770;2023-02-20T05:58:43;20.58;;;7.10;;
45039;SDS011;30778;53.574;7.770;2023-02-20T06:01:16;18.25;;;8.23;;
45039;SDS011;30778;53.574;7.770;2023-02-20T06:03:43;17.88;;;6.88;;
45039;SDS011;30778;53.574;7.770;2023-02-20T06:06:10;14.55;;;7.20;;
45039;SDS011;30778;53.574;7.770;2023-02-20T06:08:36;16.90;;;6.38;;
45039;SDS011;30778;53.574;7.770;2023-02-20T06:11:02;19.92;;;7.82;;
45039;SDS011;30778;53.574;7.770;2023-02-20T06:13:31;21.75;;;7.40;;
45039;SDS011;30778;53.574;7.770;2023-02-20T06:15:57;21.52;;;7.65;;
45039;SDS011;30778;53.574;7.770;2023-02-20T06:18:27;21.67;;;7.75;;
45039;SDS011;30778;53.574;7.770;2023-02-20T06:20:52;22.20;;;8.10;;
45039;SDS011;30778;53.574;7.770;2023-02-20T06:23:18;13.77;;;7.25;;
45039;SDS011;30778;53.574;7.770;2023-02-20T06:25:43;17.02;;;7.47;;
45039;SDS011;30778;53.574;7.770;2023-02-20T06:28:09;18.33;;;7.72;;
45039;SDS011;30778;53.574;7.770;2023-02-20T06:30:34;21.45;;;7.72;;
45039;SDS011;30778;53.574;7.770;2023-02-20T06:32:59;16.63;;;6.53;;
45039;SDS011;30778;53.574;7.770;2023-02-20T06:35:25;11.30;;;6.72;;
45039;SDS011;30778;53.574;7.770;2023-02-20T06:37:50;16.63;;;7.00;;
45039;SDS011;30778;53.574;7.770;2023-02-20T06:40:16;25.08;;;8.18;;
45039;SDS011;30778;53.574;7.770;2023-02-20T06:42:44;12.73;;;5.65;;
45039;SDS011;30778;53.574;7.770;2023-02-20T06:45:11;16.13;;;6.55;;
45039;SDS011;30778;53.574;7.770;2023-02-20T06:47:37;19.02;;;6.10;;
45039;SDS011;30778;53.574;7.770;2023-02-20T06:50:03;15.57;;;6.50;;
45039;SDS011;30778;53.574;7.770;2023-02-20T06:52:29;14.32;;;6.45;;
45039;SDS011;30778;53.574;7.770;2023-02-20T06:54:54;15.35;;;5.47;;
45039;SDS011;30778;53.574;7.770;2023-02-20T06:57:20;22.13;;;6.53;;
45039;SDS011;30778;53.574;7.770;2023-02-20T06:59:46;9.75;;;5.28;;
45039;SDS011;30778;53.574;7.770;2023-02-20T07:02:14;20.35;;;6.70;;
45039;SDS011;30778;53.574;7.770;2023-02-20T07:04:46;12.68;;;5.45;;
45039;SDS011;30778;53.574;7.770;2023-02-20T07:07:13;10.80;;;4.95;;
45039;SDS011;30778;53.574;7.770;2023-02-20T07:09:38;12.30;;;5.60;;
45039;SDS011;30778;53.574;7.770;2023-02-20T07:12:04;16.48;;;6.38;;
45039;SDS011;30778;53.574;7.770;2023-02-20T07:14:30;13.07;;;4.63;;
45039;SDS011;30778;53.574;7.770;2023-02-20T07:16:57;13.23;;;4.80;;
45039;SDS011;30778;53.574;7.770;2023-02-20T07:19:23;13.32;;;4.93;;
45039;SDS011;30778;53.574;7.770;2023-02-20T07:21:49;16.70;;;5.00;;
45039;SDS011;30778;53.574;7.770;2023-02-20T07:24:15;15.13;;;4.43;;
45039;SDS011;30778;53.574;7.770;2023-02-20T07:26:41;17.13;;;5.43;;
45039;SDS011;30778;53.574;7.770;2023-02-20T07:29:07;13.98;;;4.13;;
45039;SDS011;30778;53.574;7.770;2023-02-20T07:31:33;11.38;;;2.97;;
45039;SDS011;30778;53.574;7.770;2023-02-20T07:33:58;10.95;;;3.53;;
45039;SDS011;30778;53.574;7.770;2023-02-20T07:36:32;13.68;;;4.50;;
45039;SDS011;30778;53.574;7.770;2023-02-20T07:38:58;13.13;;;5.18;;
45039;SDS011;30778;53.574;7.770;2023-02-20T07:41:26;8.40;;;3.97;;
45039;SDS011;30778;53.574;7.770;2023-02-20T07:43:55;11.32;;;3.92;;
45039;SDS011;30778;53.574;7.770;2023-02-20T07:46:28;14.60;;;4.07;;
45039;SDS011;30778;53.574;7.770;2023-02-20T07:48:59;11.77;;;3.30;;
45039;SDS011;30778;53.574;7.770;2023-02-20T07:51:25;8.63;;;3.75;;
45039;SDS011;30778;53.574;7.770;2023-02-20T07:53:51;19.88;;;3.92;;
45039;SDS011;30778;53.574;7.770;2023-02-20T07:56:21;9.90;;;3.78;;
45039;SDS011;30778;53.574;7.770;2023-02-20T07:58:50;12.20;;;3.75;;
45039;SDS011;30778;53.574;7.770;2023-02-20T08:01:19;10.68;;;3.47;;
45039;SDS011;30778;53.574;7.770;2023-02-20T08:03:45;17.08;;;4.53;;
45039;SDS011;30778;53.574;7.770;2023-02-20T08:06:10;14.05;;;4.40;;
45039;SDS011;30778;53.574;7.770;2023-02-20T08:08:37;7.32;;;3.35;;
45039;SDS011;30778;53.574;7.770;2023-02-20T08:11:05;11.93;;;4.20;;
45039;SDS011;30778;53.574;7.770;2023-02-20T08:13:31;12.23;;;4.15;;
45039;SDS011;30778;53.574;7.770;2023-02-20T08:15:58;12.07;;;4.35;;
45039;SDS011;30778;53.574;7.770;2023-02-20T08:18:24;17.05;;;4.78;;
45039;SDS011;30778;53.574;7.770;2023-02-20T08:20:49;11.60;;;3.95;;
45039;SDS011;30778;53.574;7.770;2023-02-20T08:23:20;14.02;;;4.78;;
45039;SDS011;30778;53.574;7.770;2023-02-20T08:25:47;18.45;;;3.92;;
45039;SDS011;30778;53.574;7.770;2023-02-20T08:28:13;8.68;;;3.58;;
45039;SDS011;30778;53.574;7.770;2023-02-20T08:30:41;13.57;;;4.75;;
45039;SDS011;30778;53.574;7.770;2023-02-20T08:33:09;15.23;;;3.58;;
45039;SDS011;30778;53.574;7.770;2023-02-20T08:35:35;7.50;;;3.33;;
45039;SDS011;30778;53.574;7.770;2023-02-20T08:38:01;8.75;;;3.05;;
45039;SDS011;30778;53.574;7.770;2023-02-20T08:40:28;18.48;;;5.03;;
45039;SDS011;30778;53.574;7.770;2023-02-20T08:42:53;24.98;;;3.97;;
45039;SDS011;30778;53.574;7.770;2023-02-20T08:45:19;12.45;;;4.43;;
45039;SDS011;30778;53.574;7.770;2023-02-20T08:47:44;12.93;;;3.05;;
45039;SDS011;30778;53.574;7.770;2023-02-20T08:50:12;9.70;;;3.17;;
45039;SDS011;30778;53.574;7.770;2023-02-20T08:52:38;7.50;;;3.67;;
45039;SDS011;30778;53.574;7.770;2023-02-20T08:55:03;6.40;;;3.42;;
45039;SDS011;30778;53.574;7.770;2023-02-20T08:57:29;8.63;;;3.75;;
45039;SDS011;30778;53.574;7.770;2023-02-20T08:59:55;10.63;;;3.50;;
45039;SDS011;30778;53.574;7.770;2023-02-20T09:02:21;11.00;;;3.28;;
45039;SDS011;30778;53.574;7.770;2023-02-20T09:04:53;9.55;;;2.97;;
45039;SDS011;30778;53.574;7.770;2023-02-20T09:07:19;12.18;;;2.92;;
45039;SDS011;30778;53.574;7.770;2023-02-20T09:09:48;13.95;;;3.67;;
45039;SDS011;30778;53.574;7.770;2023-02-20T09:12:15;6.93;;;3.00;;
45039;SDS011;30778;53.574;7.770;2023-02-20T09:14:41;10.98;;;2.75;;
45039;SDS011;30778;53.574;7.770;2023-02-20T09:17:06;7.78;;;2.75;;
45039;SDS011;30778;53.574;7.770;2023-02-20T09:19:32;10.07;;;3.88;;
45039;SDS011;30778;53.574;7.770;2023-02-20T09:21:57;11.20;;;2.38;;
45039;SDS011;30778;53.574;7.770;2023-02-20T09:24:23;9.80;;;3.05;;
45039;SDS011;30778;53.574;7.770;2023-02-20T09:26:49;9.85;;;3.03;;
45039;SDS011;30778;53.574;7.770;2023-02-20T09:29:14;9.50;;;2.50;;
45039;SDS011;30778;53.574;7.770;2023-02-20T09:31:41;10.45;;;2.85;;
45039;SDS011;30778;53.574;7.770;2023-02-20T09:34:06;15.98;;;2.95;;
45039;SDS011;30778;53.574;7.770;2023-02-20T09:36:35;6.75;;;2.45;;
45039;SDS011;30778;53.574;7.770;2023-02-20T09:39:03;10.77;;;3.17;;
45039;SDS011;30778;53.574;7.770;2023-02-20T09:44:15;18.48;;;3.10;;
45039;SDS011;30778;53.574;7.770;2023-02-20T09:46:48;10.27;;;3.25;;
45039;SDS011;30778;53.574;7.770;2023-02-20T09:49:17;7.13;;;2.75;;
45039;SDS011;30778;53.574;7.770;2023-02-20T09:51:52;10.77;;;2.80;;
45039;SDS011;30778;53.574;7.770;2023-02-20T09:54:31;6.57;;;2.28;;
45039;SDS011;30778;53.574;7.770;2023-02-20T09:57:02;6.72;;;2.08;;
45039;SDS011;30778;53.574;7.770;2023-02-20T09:59:39;6.95;;;2.22;;
45039;SDS011;30778;53.574;7.770;2023-02-20T10:04:54;9.65;;;1.80;;
45039;SDS011;30778;53.574;7.770;2023-02-20T10:07:33;12.00;;;3.17;;
45039;SDS011;30778;53.574;7.770;2023-02-20T10:10:04;3.42;;;1.90;;
45039;SDS011;30778;53.574;7.770;2023-02-20T10:12:52;7.85;;;2.53;;
45039;SDS011;30778;53.574;7.770;2023-02-20T10:15:41;6.15;;;1.75;;
45039;SDS011;30778;53.574;7.770;2023-02-20T10:23:57;9.65;;;2.03;;
45039;SDS011;30778;53.574;7.770;2023-02-20T10:26:32;6.50;;;1.48;;
45039;SDS011;30778;53.574;7.770;2023-02-20T10:29:09;8.68;;;2.72;;
45039;SDS011;30778;53.574;7.770;2023-02-20T10:32:02;7.97;;;2.25;;
45039;SDS011;30778;53.574;7.770;2023-02-20T10:34:40;14.20;;;1.98;;
45039;SDS011;30778;53.574;7.770;2023-02-20T10:37:19;11.38;;;2.78;;
45039;SDS011;30778;53.574;7.770;2023-02-20T10:39:48;8.15;;;2.08;;
45039;SDS011;30778;53.574;7.770;2023-02-20T10:42:22;8.95;;;1.98;;
45039;SDS011;30778;53.574;7.770;2023-02-20T10:44:57;6.57;;;2.00;;
45039;SDS011;30778;53.574;7.770;2023-02-20T10:53:14;13.20;;;2.92;;
45039;SDS011;30778;53.574;7.770;2023-02-20T10:55:47;11.15;;;2.25;;
45039;SDS011;30778;53.574;7.770;2023-02-20T10:58:32;9.00;;;2.40;;
45039;SDS011;30778;53.574;7.770;2023-02-20T11:01:04;11.27;;;2.80;;
45039;SDS011;30778;53.574;7.770;2023-02-20T11:06:15;8.30;;;2.13;;
45039;SDS011;30778;53.574;7.770;2023-02-20T11:08:44;11.40;;;2.38;;
45039;SDS011;30778;53.574;7.770;2023-02-20T11:11:24;11.70;;;1.83;;
45039;SDS011;30778;53.574;7.770;2023-02-20T11:13:54;7.63;;;2.10;;
45039;SDS011;30778;53.574;7.770;2023-02-20T11:16:24;8.77;;;2.40;;
45039;SDS011;30778;53.574;7.770;2023-02-20T11:19:00;9.23;;;1.83;;
45039;SDS011;30778;53.574;7.770;2023-02-20T11:21:37;16.60;;;2.33;;
45039;SDS011;30778;53.574;7.770;2023-02-20T11:24:16;2.55;;;1.35;;
45039;SDS011;30778;53.574;7.770;2023-02-20T11:29:36;4.40;;;1.58;;
45039;SDS011;30778;53.574;7.770;2023-02-20T11:35:01;7.28;;;1.77;;
45039;SDS011;30778;53.574;7.770;2023-02-20T11:37:38;10.25;;;2.60;;
45039;SDS011;30778;53.574;7.770;2023-02-20T11:40:04;9.38;;;2.38;;
45039;SDS011;30778;53.574;7.770;2023-02-20T11:42:39;11.40;;;3.08;;
45039;SDS011;30778;53.574;7.770;2023-02-20T11:45:11;6.22;;;1.92;;
45039;SDS011;30778;53.574;7.770;2023-02-20T11:47:41;6.93;;;2.28;;
45039;SDS011;30778;53.574;7.770;2023-02-20T11:52:38;8.35;;;2.33;;
45039;SDS011;30778;53.574;7.770;2023-02-20T11:55:23;3.65;;;1.42;;
45039;SDS011;30778;53.574;7.770;2023-02-20T11:57:52;9.40;;;1.95;;
45039;SDS011;30778;53.574;7.770;2023-02-20T12:00:18;16.20;;;2.45;;
45039;SDS011;30778;53.574;7.770;2023-02-20T12:02:53;9.50;;;1.98;;
45039;SDS011;30778;53.574;7.770;2023-02-20T12:05:43;3.63;;;1.95;;
45039;SDS011;30778;53.574;7.770;2023-02-20T12:08:28;8.40;;;1.50;;
45039;SDS011;30778;53.574;7.770;2023-02-20T12:13:39;3.45;;;1.35;;
45039;SDS011;30778;53.574;7.770;2023-02-20T12:16:53;5.15;;;1.50;;
45039;SDS011;30778;53.574;7.770;2023-02-20T12:27:45;6.90;;;2.05;;
45039;SDS011;30778;53.574;7.770;2023-02-20T12:44:13;14.90;;;2.25;;
45039;SDS011;30778;53.574;7.770;2023-02-20T13:01:02;8.68;;;2.35;;
45039;SDS011;30778;53.574;7.770;2023-02-20T13:03:36;5.03;;;1.90;;
45039;SDS011;30778;53.574;7.770;2023-02-20T13:06:12;6.90;;;1.92;;
45039;SDS011;30778;53.574;7.770;2023-02-20T13:09:04;3.70;;;1.88;;
45039;SDS011;30778;53.574;7.770;2023-02-20T13:11:46;5.70;;;1.65;;
45039;SDS011;30778;53.574;7.770;2023-02-20T13:14:23;4.13;;;1.63;;
45039;SDS011;30778;53.574;7.770;2023-02-20T13:19:40;6.60;;;2.25;;
45039;SDS011;30778;53.574;7.770;2023-02-20T13:22:13;4.55;;;1.48;;
45039;SDS011;30778;53.574;7.770;2023-02-20T13:24:40;13.48;;;2.10;;
45039;SDS011;30778;53.574;7.770;2023-02-20T13:27:25;8.02;;;2.40;;
45039;SDS011;30778;53.574;7.770;2023-02-20T13:32:30;5.00;;;1.58;;
45039;SDS011;30778;53.574;7.770;2023-02-20T13:40:39;12.80;;;2.88;;
45039;SDS011;30778;53.574;7.770;2023-02-20T13:45:38;13.32;;;2.42;;
45039;SDS011;30778;53.574;7.770;2023-02-20T13:53:43;5.15;;;1.75;;
45039;SDS011;30778;53.574;7.770;2023-02-20T13:56:19;4.95;;;1.67;;
45039;SDS011;30778;53.574;7.770;2023-02-20T13:58:52;6.15;;;1.75;;
45039;SDS011;30778;53.574;7.770;2023-02-20T14:01:28;7.15;;;1.50;;
45039;SDS011;30778;53.574;7.770;2023-02-20T14:04:00;6.45;;;1.30;;
45039;SDS011;30778;53.574;7.770;2023-02-20T14:06:31;12.18;;;1.95;;
45039;SDS011;30778;53.574;7.770;2023-02-20T14:09:06;4.18;;;1.92;;
45039;SDS011;30778;53.574;7.770;2023-02-20T14:11:37;9.77;;;2.00;;
45039;SDS011;30778;53.574;7.770;2023-02-20T14:14:07;5.10;;;1.38;;
45039;SDS011;30778;53.574;7.770;2023-02-20T14:16:36;6.38;;;1.58;;
45039;SDS011;30778;53.574;7.770;2023-02-20T14:19:18;10.75;;;2.13;;
45039;SDS011;30778;53.574;7.770;2023-02-20T14:21:49;4.05;;;1.85;;
45039;SDS011;30778;53.574;7.770;2023-02-20T14:24:16;7.65;;;1.73;;
45039;SDS011;30778;53.574;7.770;2023-02-20T14:26:43;6.32;;;2.15;;
45039;SDS011;30778;53.574;7.770;2023-02-20T14:29:23;8.25;;;2.00;;
45039;SDS011;30778;53.574;7.770;2023-02-20T14:31:59;6.13;;;1.17;;
45039;SDS011;30778;53.574;7.770;2023-02-20T14:34:36;14.27;;;1.70;;
45039;SDS011;30778;53.574;7.770;2023-02-20T14:37:18;7.93;;;1.35;;
45039;SDS011;30778;53.574;7.770;2023-02-20T14:40:00;8.23;;;1.90;;
45039;SDS011;30778;53.574;7.770;2023-02-20T14:42:33;8.40;;;1.98;;
45039;SDS011;30778;53.574;7.770;2023-02-20T14:45:04;8.70;;;1.98;;
45039;SDS011;30778;53.574;7.770;2023-02-20T14:47:47;5.60;;;1.52;;
45039;SDS011;30778;53.574;7.770;2023-02-20T14:50:16;9.75;;;1.85;;
45039;SDS011;30778;53.574;7.770;2023-02-20T14:52:43;7.65;;;1.63;;
45039;SDS011;30778;53.574;7.770;2023-02-20T14:55:14;8.75;;;2.20;;
45039;SDS011;30778;53.574;7.770;2023-02-20T14:57:41;9.75;;;2.22;;
45039;SDS011;30778;53.574;7.770;2023-02-20T15:00:11;17.75;;;2.80;;
45039;SDS011;30778;53.574;7.770;2023-02-20T15:02:48;8.00;;;1.75;;
45039;SDS011;30778;53.574;7.770;2023-02-20T15:05:30;9.70;;;1.58;;
45039;SDS011;30778;53.574;7.770;2023-02-20T15:10:43;10.95;;;1.45;;
45039;SDS011;30778;53.574;7.770;2023-02-20T15:13:13;10.38;;;1.05;;
45039;SDS011;30778;53.574;7.770;2023-02-20T15:15:44;9.73;;;1.20;;
45039;SDS011;30778;53.574;7.770;2023-02-20T15:18:12;8.82;;;1.48;;
45039;SDS011;30778;53.574;7.770;2023-02-20T15:20:42;10.52;;;1.40;;
45039;SDS011;30778;53.574;7.770;2023-02-20T15:25:56;5.88;;;1.13;;
45039;SDS011;30778;53.574;7.770;2023-02-20T15:28:26;8.10;;;1.67;;
45039;SDS011;30778;53.574;7.770;2023-02-20T15:31:04;9.70;;;1.35;;
45039;SDS011;30778;53.574;7.770;2023-02-20T15:33:33;7.07;;;1.58;;
45039;SDS011;30778;53.574;7.770;2023-02-20T15:36:13;7.43;;;2.00;;
45039;SDS011;30778;53.574;7.770;2023-02-20T15:38:43;5.63;;;2.05;;
45039;SDS011;30778;53.574;7.770;2023-02-20T15:41:11;12.85;;;1.83;;
45039;SDS011;30778;53.574;7.770;2023-02-20T15:43:36;10.93;;;2.58;;
45039;SDS011;30778;53.574;7.770;2023-02-20T15:46:02;9.00;;;1.90;;
45039;SDS011;30778;53.574;7.770;2023-02-20T15:48:27;7.78;;;1.73;;
45039;SDS011;30778;53.574;7.770;2023-02-20T15:50:53;20.02;;;2.60;;
45039;SDS011;30778;53.574;7.770;2023-02-20T15:53:25;13.13;;;2.35;;
45039;SDS011;30778;53.574;7.770;2023-02-20T15:55:54;10.50;;;1.25;;
45039;SDS011;30778;53.574;7.770;2023-02-20T15:58:23;13.80;;;3.28;;
45039;SDS011;30778;53.574;7.770;2023-02-20T16:00:51;4.75;;;0.88;;
45039;SDS011;30778;53.574;7.770;2023-02-20T16:03:22;8.45;;;2.17;;
45039;SDS011;30778;53.574;7.770;2023-02-20T16:05:51;10.68;;;2.33;;
45039;SDS011;30778;53.574;7.770;2023-02-20T16:08:18;17.63;;;1.98;;
45039;SDS011;30778;53.574;7.770;2023-02-20T16:10:45;11.00;;;1.23;;
45039;SDS011;30778;53.574;7.770;2023-02-20T16:13:15;9.50;;;1.15;;
45039;SDS011;30778;53.574;7.770;2023-02-20T16:15:44;10.15;;;1.98;;
45039;SDS011;30778;53.574;7.770;2023-02-20T16:18:12;8.43;;;1.63;;
45039;SDS011;30778;53.574;7.770;2023-02-20T16:20:37;5.50;;;1.85;;
45039;SDS011;30778;53.574;7.770;2023-02-20T16:23:02;9.23;;;1.63;;
45039;SDS011;30778;53.574;7.770;2023-02-20T16:25:29;4.15;;;1.55;;
45039;SDS011;30778;53.574;7.770;2023-02-20T16:27:55;13.82;;;1.63;;
45039;SDS011;30778;53.574;7.770;2023-02-20T16:30:22;12.45;;;2.05;;
45039;SDS011;30778;53.574;7.770;2023-02-20T16:32:49;6.28;;;1.48;;
45039;SDS011;30778;53.574;7.770;2023-02-20T16:35:16;4.25;;;1.08;;
45039;SDS011;30778;53.574;7.770;2023-02-20T16:37:41;8.85;;;1.60;;
45039;SDS011;30778;53.574;7.770;2023-02-20T16:40:07;8.10;;;1.33;;
45039;SDS011;30778;53.574;7.770;2023-02-20T16:42:34;12.20;;;1.60;;
45039;SDS011;30778;53.574;7.770;2023-02-20T16:45:09;9.20;;;2.35;;
45039;SDS011;30778;53.574;7.770;2023-02-20T16:47:37;7.20;;;2.47;;
45039;SDS011;30778;53.574;7.770;2023-02-20T16:50:03;8.15;;;1.70;;
45039;SDS011;30778;53.574;7.770;2023-02-20T16:52:40;8.15;;;1.88;;